Time;durP1;ratioP1;P1;durP2;ratioP2;P2;SDS_P1;SDS_P2;PMS_P1;PMS_P2;Temp;Humidity;BMP_temperature;BMP_pressure;BME280_temperature;BME280_humidity;BME280_pressure;Samples;Min_cycle;Max_cycle;Signal;HPM_P1;HPM_P2
2023/05/23 00:02:07;;;;;;;18.45;12.45;;;;;;;15.00;100.00;96421.44;4997956;28;20196;-66
2023/05/23 00:04:35;;;;;;;27.80;14.95;;;;;;;15.29;100.00;96432.31;5001598;28;20137;-66
2023/05/23 00:07:01;;;;;;;19.67;12.18;;;;;;;15.43;100.00;96431.41;4985137;28;20042;-66
2023/05/23 00:09:27;;;;;;;21.83;13.13;;;;;;;15.52;100.00;96434.53;4999338;28;20135;-68
2023/05/23 00:11:52;;;;;;;14.55;10.90;;;;;;;15.49;100.00;96432.56;5003043;28;20041;-67
2023/05/23 00:14:18;;;;;;;18.00;11.50;;;;;;;15.50;100.00;96434.13;4997462;28;20049;-67
2023/05/23 00:16:45;;;;;;;14.55;11.18;;;;;;;15.32;100.00;96431.50;5001568;28;20037;-66
2023/05/23 00:19:13;;;;;;;17.23;12.20;;;;;;;15.19;100.00;96441.44;4997120;28;20053;-65
2023/05/23 00:21:39;;;;;;;15.25;11.15;;;;;;;15.09;100.00;96443.84;5002425;28;20034;-65
2023/05/23 00:24:04;;;;;;;16.15;11.82;;;;;;;15.10;100.00;96442.66;4997223;28;20049;-66
2023/05/23 00:26:31;;;;;;;18.02;12.52;;;;;;;14.62;100.00;96439.72;5001973;28;20046;-66
2023/05/23 00:28:56;;;;;;;20.25;12.82;;;;;;;14.54;100.00;96436.19;5004020;28;20042;-66
2023/05/23 00:31:22;;;;;;;15.02;11.43;;;;;;;14.64;100.00;96435.41;4997934;28;21125;-65
2023/05/23 00:33:47;;;;;;;16.67;12.60;;;;;;;14.61;100.00;96430.69;5003188;28;20077;-65
2023/05/23 00:36:13;;;;;;;16.75;12.27;;;;;;;14.63;100.00;96441.31;4997031;28;20042;-66
2023/05/23 00:38:38;;;;;;;18.95;11.73;;;;;;;14.57;100.00;96434.59;5001764;28;20459;-67
2023/05/23 00:41:04;;;;;;;17.98;11.00;;;;;;;14.58;100.00;96436.22;4996868;28;20041;-69
2023/05/23 00:43:30;;;;;;;17.17;11.15;;;;;;;14.67;100.00;96431.06;5001746;28;20506;-67
2023/05/23 00:45:56;;;;;;;17.15;11.63;;;;;;;14.59;100.00;96435.81;5002532;28;20050;-65
2023/05/23 00:48:23;;;;;;;15.75;12.32;;;;;;;14.77;100.00;96432.22;4997392;28;21454;-66
2023/05/23 00:50:49;;;;;;;17.48;12.00;;;;;;;14.80;100.00;96440.47;5001943;28;20046;-67
2023/05/23 00:53:15;;;;;;;18.85;12.60;;;;;;;14.87;100.00;96434.13;4997659;28;20127;-68
2023/05/23 00:55:41;;;;;;;18.23;13.05;;;;;;;14.81;100.00;96438.47;5002348;28;20045;-67
2023/05/23 00:58:06;;;;;;;15.93;12.25;;;;;;;14.77;100.00;96449.53;5007653;28;20053;-67
2023/05/23 01:00:33;;;;;;;17.35;11.90;;;;;;;14.77;100.00;96443.25;5010730;28;20037;-65
2023/05/23 01:03:00;;;;;;;16.58;12.25;;;;;;;14.75;100.00;96440.88;5000702;28;20057;-68
2023/05/23 01:05:25;;;;;;;18.10;11.77;;;;;;;14.87;100.00;96434.91;4997312;28;20471;-65
2023/05/23 01:07:51;;;;;;;15.07;11.70;;;;;;;15.04;100.00;96440.75;5002180;28;20100;-66
2023/05/23 01:10:22;;;;;;;16.60;11.18;;;;;;;15.08;100.00;96441.50;4997500;28;20048;-67
2023/05/23 01:13:01;;;;;;;19.15;12.77;;;;;;;15.03;100.00;96437.19;5000836;28;20045;-67
2023/05/23 01:16:05;;;;;;;18.00;12.45;;;;;;;15.01;100.00;96436.03;4997206;28;20045;-65
2023/05/23 01:18:40;;;;;;;20.90;13.05;;;;;;;15.14;100.00;96441.84;4996808;28;20133;-65
2023/05/23 01:21:11;;;;;;;15.77;12.25;;;;;;;15.17;100.00;96438.31;4997137;28;20797;-67
2023/05/23 01:24:10;;;;;;;19.27;12.27;;;;;;;15.13;100.00;96441.06;5001421;28;20054;-66
2023/05/23 01:27:00;;;;;;;18.23;11.63;;;;;;;15.16;100.00;96440.28;5000031;28;20064;-67
2023/05/23 01:29:30;;;;;;;;;;;;;;;15.11;100.00;96443.47;4997367;28;20048;-67
2023/05/23 01:31:57;;;;;;;17.60;12.20;;;;;;;14.70;100.00;96444.81;5001668;28;19936;-67
2023/05/23 01:34:23;;;;;;;17.88;12.60;;;;;;;14.37;100.00;96440.59;4995886;28;20752;-67
2023/05/23 01:36:52;;;;;;;18.33;13.13;;;;;;;14.25;100.00;96452.03;5001788;28;20046;-67
2023/05/23 01:39:18;;;;;;;;;;;;;;;14.44;100.00;96457.09;4996661;28;20045;-67
2023/05/23 01:41:43;;;;;;;18.13;12.90;;;;;;;14.67;100.00;96455.84;5001209;28;20450;-65
2023/05/23 01:44:08;;;;;;;19.15;13.80;;;;;;;14.64;100.00;96459.41;4996415;28;20355;-67
2023/05/23 01:46:38;;;;;;;17.17;13.52;;;;;;;14.84;100.00;96451.47;5000009;28;20129;-66
2023/05/23 01:49:05;;;;;;;16.50;12.85;;;;;;;14.98;100.00;96443.13;4999491;28;20049;-71
2023/05/23 01:51:32;;;;;;;21.25;12.75;;;;;;;15.14;100.00;96442.63;4984054;28;20140;-67
2023/05/23 01:53:59;;;;;;;19.10;12.20;;;;;;;15.15;100.00;96451.72;5000356;28;20084;-66
2023/05/23 01:56:26;;;;;;;62.15;35.60;;;;;;;15.18;100.00;96445.38;4977886;28;20480;-69
2023/05/23 01:58:51;;;;;;;19.20;14.23;;;;;;;15.08;100.00;96450.56;5000540;28;20042;-66
2023/05/23 02:01:17;;;;;;;16.80;12.98;;;;;;;14.90;100.00;96441.59;4995452;28;20453;-66
2023/05/23 02:03:42;;;;;;;19.67;12.95;;;;;;;14.83;100.00;96458.94;5000890;28;20073;-67
2023/05/23 02:06:07;;;;;;;19.25;15.07;;;;;;;14.94;100.00;96447.09;4996079;28;20487;-67
2023/05/23 02:08:33;;;;;;;20.27;12.73;;;;;;;15.09;100.00;96454.88;5001166;28;20371;-68
2023/05/23 02:10:58;;;;;;;17.48;12.82;;;;;;;14.95;100.00;96454.19;5000605;28;20141;-69
2023/05/23 02:13:23;;;;;;;19.80;12.60;;;;;;;14.96;100.00;96467.53;4996407;28;20156;-68
2023/05/23 02:15:49;;;;;;;18.75;12.48;;;;;;;14.95;100.00;96467.97;5001246;28;20048;-67
2023/05/23 02:18:14;;;;;;;20.05;13.43;;;;;;;14.76;100.00;96470.00;4996811;28;20070;-67
2023/05/23 02:20:40;;;;;;;17.05;12.73;;;;;;;14.63;100.00;96482.66;5000784;28;20576;-68
2023/05/23 02:23:05;;;;;;;16.90;12.63;;;;;;;14.63;100.00;96469.66;5000932;28;20042;-67
2023/05/23 02:25:30;;;;;;;17.67;12.77;;;;;;;14.61;100.00;96476.75;5003960;28;20042;-66
2023/05/23 02:27:56;;;;;;;18.27;13.07;;;;;;;14.49;100.00;96464.16;5004112;28;20050;-66
2023/05/23 02:30:21;;;;;;;17.33;12.95;;;;;;;14.24;100.00;96469.72;5000267;28;20917;-66
2023/05/23 02:32:46;;;;;;;18.23;12.85;;;;;;;14.19;100.00;96470.13;5004782;28;20048;-68
2023/05/23 02:35:12;;;;;;;16.48;12.57;;;;;;;14.26;100.00;96473.66;5001546;28;20050;-67
2023/05/23 02:37:37;;;;;;;42.53;26.20;;;;;;;14.44;100.00;96472.81;5017925;28;20129;-65
2023/05/23 02:40:06;;;;;;;21.15;13.00;;;;;;;14.53;100.00;96478.69;5002285;28;20068;-69
2023/05/23 02:42:32;;;;;;;16.08;11.82;;;;;;;14.62;100.00;96470.03;5003900;28;20061;-66
2023/05/23 02:44:57;;;;;;;17.38;10.70;;;;;;;14.63;100.00;96472.41;5004092;28;20475;-65
2023/05/23 02:47:22;;;;;;;18.08;11.75;;;;;;;14.65;100.00;96470.03;4999103;28;20515;-67
2023/05/23 02:49:48;;;;;;;16.38;12.23;;;;;;;14.67;100.00;96475.16;5002673;28;20100;-67
2023/05/23 02:52:13;;;;;;;16.80;12.30;;;;;;;14.64;100.00;96471.25;4998347;28;20134;-68
2023/05/23 02:54:39;;;;;;;17.75;12.20;;;;;;;14.62;100.00;96470.03;5009982;28;20052;-69
2023/05/23 02:57:05;;;;;;;17.60;12.27;;;;;;;14.57;100.00;96468.47;5007482;28;20199;-66
2023/05/23 02:59:30;;;;;;;17.25;11.82;;;;;;;14.65;100.00;96469.25;5003424;28;20580;-70
2023/05/23 03:01:56;;;;;;;17.65;12.45;;;;;;;14.67;100.00;96475.94;5004061;28;20175;-65
2023/05/23 03:04:21;;;;;;;18.25;12.93;;;;;;;14.60;100.00;96472.41;4998125;28;20949;-65
2023/05/23 03:06:47;;;;;;;16.92;11.88;;;;;;;14.63;100.00;96472.41;5003125;28;20042;-65
2023/05/23 03:09:15;;;;;;;18.83;11.85;;;;;;;14.71;100.00;96475.91;4998087;28;20042;-65
2023/05/23 03:11:41;;;;;;;16.58;12.27;;;;;;;14.72;100.00;96472.78;5003652;28;20045;-67
2023/05/23 03:14:06;;;;;;;17.65;11.48;;;;;;;14.69;100.00;96472.78;4998351;28;20133;-69
2023/05/23 03:16:31;;;;;;;16.08;11.73;;;;;;;14.64;100.00;96478.69;5003613;28;20086;-66
2023/05/23 03:18:57;;;;;;;18.65;12.60;;;;;;;14.58;100.00;96477.56;5002999;28;20049;-67
2023/05/23 03:21:22;;;;;;;16.30;11.85;;;;;;;14.46;100.00;96485.03;4998528;28;20485;-67
2023/05/23 03:23:48;;;;;;;17.92;12.50;;;;;;;14.20;100.00;96479.97;5003298;28;20044;-68
2023/05/23 03:26:14;;;;;;;16.77;12.52;;;;;;;14.11;100.00;96494.91;4998424;28;20097;-67
2023/05/23 03:28:39;;;;;;;21.10;13.50;;;;;;;14.23;100.00;96488.22;5003034;28;20072;-68
2023/05/23 03:31:05;;;;;;;17.42;12.18;;;;;;;14.26;100.00;96490.19;4996337;28;20038;-70
2023/05/23 03:33:30;;;;;;;19.75;12.85;;;;;;;14.13;100.00;96481.56;5002182;28;20137;-67
2023/05/23 03:35:56;;;;;;;17.98;12.90;;;;;;;13.92;100.00;96482.34;5002916;28;20057;-68
2023/05/23 03:38:21;;;;;;;19.58;13.25;;;;;;;13.89;100.00;96480.38;4997688;28;20058;-68
2023/05/23 03:40:47;;;;;;;22.63;15.25;;;;;;;13.57;100.00;96481.13;5003534;28;20104;-66
2023/05/23 03:43:12;;;;;;;17.58;13.10;;;;;;;13.63;100.00;96489.00;4997695;28;20041;-69
2023/05/23 03:45:37;;;;;;;19.98;14.02;;;;;;;13.76;100.00;96487.47;5003530;28;20041;-68
2023/05/23 03:48:03;;;;;;;20.70;14.38;;;;;;;13.31;100.00;96498.03;4999565;28;20044;-72
2023/05/23 03:50:28;;;;;;;21.83;14.95;;;;;;;13.37;100.00;96499.19;5002353;28;20510;-69
2023/05/23 03:52:54;;;;;;;21.08;15.85;;;;;;;13.04;100.00;96506.56;5002114;28;20048;-68
2023/05/23 03:55:21;;;;;;;22.95;16.08;;;;;;;13.03;100.00;96506.94;4997362;28;20717;-68
2023/05/23 03:57:52;;;;;;;27.55;15.88;;;;;;;12.94;100.00;96515.53;5003025;28;20049;-69
2023/05/23 04:00:18;;;;;;;20.83;15.50;;;;;;;13.07;100.00;96513.22;4997745;28;20045;-67
2023/05/23 04:02:48;;;;;;;24.80;15.98;;;;;;;13.11;100.00;96522.28;5001541;28;20132;-68
2023/05/23 04:05:14;;;;;;;24.08;15.15;;;;;;;13.26;100.00;96531.38;4998129;28;20060;-67
2023/05/23 04:07:40;;;;;;;23.13;15.82;;;;;;;13.72;100.00;96522.44;5001874;28;20033;-66
2023/05/23 04:10:07;;;;;;;22.60;15.52;;;;;;;13.73;100.00;96527.56;4997445;28;20042;-66
2023/05/23 04:12:33;;;;;;;20.33;14.77;;;;;;;14.08;100.00;96519.69;4999999;28;20042;-66
2023/05/23 04:14:58;;;;;;;22.08;13.77;;;;;;;14.15;100.00;96520.50;5002872;28;20092;-65
2023/05/23 04:17:24;;;;;;;20.05;14.27;;;;;;;14.37;100.00;96525.19;4997766;28;20053;-65
2023/05/23 04:19:50;;;;;;;25.73;14.65;;;;;;;14.58;100.00;96518.88;5001149;28;20419;-66
2023/05/23 04:22:16;;;;;;;25.27;14.82;;;;;;;14.38;100.00;96518.50;4996061;28;20074;-67
2023/05/23 04:24:43;;;;;;;19.20;14.55;;;;;;;14.44;100.00;96511.41;5001734;28;20068;-70
2023/05/23 04:27:08;;;;;;;21.23;14.05;;;;;;;14.59;100.00;96521.25;4997897;28;20046;-66
2023/05/23 04:29:34;;;;;;;22.30;13.70;;;;;;;14.91;100.00;96514.88;5001859;28;20471;-68
2023/05/23 04:32:15;;;;;;;24.05;13.65;;;;;;;15.03;100.00;96528.19;5018889;28;20409;-66
2023/05/23 04:34:41;;;;;;;18.50;12.75;;;;;;;15.29;100.00;96524.16;5038969;28;20486;-66
2023/05/23 04:37:08;;;;;;;14.88;11.50;;;;;;;15.65;100.00;96526.69;5022636;28;20053;-67
2023/05/23 04:39:33;;;;;;;16.77;11.25;;;;;;;16.04;100.00;96531.19;5017431;28;20094;-66
2023/05/23 04:41:59;;;;;;;18.25;11.27;;;;;;;16.36;100.00;96524.59;5018136;28;20038;-71
2023/05/23 04:44:25;;;;;;;17.77;10.90;;;;;;;16.51;100.00;96535.50;5013773;28;20076;-67
2023/05/23 04:46:51;;;;;;;15.75;11.15;;;;;;;16.72;100.00;96529.00;5018182;28;20045;-68
2023/05/23 04:49:16;;;;;;;16.90;11.55;;;;;;;16.97;100.00;96534.28;5028315;28;20046;-69
2023/05/23 04:51:42;;;;;;;16.48;11.52;;;;;;;17.17;100.00;96526.91;5018181;28;20061;-65
2023/05/23 04:54:08;;;;;;;15.90;11.27;;;;;;;17.41;100.00;96529.00;5012657;28;20398;-65
2023/05/23 04:56:33;;;;;;;15.70;11.45;;;;;;;17.64;100.00;96533.81;5018054;28;20084;-65
2023/05/23 04:58:58;;;;;;;18.02;11.73;;;;;;;18.13;100.00;96539.84;5016875;28;20547;-67
2023/05/23 05:01:24;;;;;;;15.23;11.02;;;;;;;18.21;99.98;96541.28;5013789;28;20065;-67
2023/05/23 05:03:50;;;;;;;18.13;12.25;;;;;;;16.56;100.00;96533.09;5017941;28;20046;-68
2023/05/23 05:06:16;;;;;;;18.35;12.05;;;;;;;16.87;100.00;96537.94;5013936;28;20038;-67
2023/05/23 05:08:42;;;;;;;14.95;12.10;;;;;;;17.26;100.00;96531.94;5018004;28;20081;-68
2023/05/23 05:11:08;;;;;;;19.58;11.85;;;;;;;17.43;100.00;96535.69;5014126;28;20072;-69
2023/05/23 05:13:33;;;;;;;20.73;12.13;;;;;;;17.56;100.00;96533.16;5017084;28;20046;-68
2023/05/23 05:15:58;;;;;;;20.73;12.65;;;;;;;17.49;100.00;96539.56;5017833;28;20052;-67
2023/05/23 05:18:27;;;;;;;20.83;12.30;;;;;;;16.98;100.00;96538.63;5012763;28;20077;-68
2023/05/23 05:20:53;;;;;;;18.23;12.90;;;;;;;16.90;100.00;96539.88;5017997;28;20041;-68
2023/05/23 05:23:19;;;;;;;15.52;12.30;;;;;;;16.76;100.00;96543.56;5012576;28;20514;-67
2023/05/23 05:25:45;;;;;;;18.48;12.20;;;;;;;17.18;100.00;96542.31;5017865;28;20049;-67
2023/05/23 05:28:10;;;;;;;17.40;12.00;;;;;;;17.68;100.00;96535.34;5013558;28;20034;-66
2023/05/23 05:30:36;;;;;;;21.25;12.90;;;;;;;18.10;100.00;96544.25;5016996;28;20049;-68
2023/05/23 05:33:06;;;;;;;16.92;11.75;;;;;;;18.18;100.00;96549.66;5018068;28;20080;-66
2023/05/23 05:35:32;;;;;;;17.17;11.25;;;;;;;18.41;99.45;96558.00;5015094;28;20034;-66
2023/05/23 05:37:59;;;;;;;15.98;11.52;;;;;;;18.59;98.35;96543.81;5017169;28;20062;-68
2023/05/23 05:40:24;;;;;;;18.20;12.73;;;;;;;18.52;97.78;96555.03;5012916;28;20045;-68
2023/05/23 05:42:50;;;;;;;15.80;11.88;;;;;;;18.80;97.32;96553.75;5006717;28;20399;-67
2023/05/23 05:45:15;;;;;;;16.42;11.43;;;;;;;19.04;94.77;96553.72;5001145;28;20045;-67
2023/05/23 05:47:41;;;;;;;17.77;11.98;;;;;;;18.95;94.01;96559.84;5003524;28;20046;-66
2023/05/23 05:50:08;;;;;;;16.17;12.15;;;;;;;19.06;94.47;96563.19;4981240;28;20046;-67
2023/05/23 05:52:37;;;;;;;18.05;11.93;;;;;;;19.09;93.00;96556.78;4984271;28;20395;-66
2023/05/23 05:55:12;;;;;;;17.15;11.07;;;;;;;19.60;92.39;96555.75;4983052;28;20049;-69
2023/05/23 05:57:39;;;;;;;17.05;12.27;;;;;;;20.92;82.85;96557.41;4984969;28;20046;-67
2023/05/23 06:00:17;;;;;;;15.38;10.50;;;;;;;22.03;76.84;96561.00;4979723;28;20133;-70
2023/05/23 06:02:43;;;;;;;14.45;10.52;;;;;;;22.90;69.88;96559.75;4983020;28;20038;-67
2023/05/23 06:05:16;;;;;;;17.02;11.40;;;;;;;22.93;69.32;96563.66;4979848;28;20071;-68
2023/05/23 06:07:42;;;;;;;16.00;11.05;;;;;;;23.83;64.99;96572.41;4984233;28;20147;-66
2023/05/23 06:10:11;;;;;;;16.50;10.90;;;;;;;24.18;63.15;96564.63;4979310;28;20049;-66
2023/05/23 06:12:36;;;;;;;14.07;10.47;;;;;;;24.77;59.75;96572.25;4983708;28;20101;-66
2023/05/23 06:15:02;;;;;;;17.83;12.90;;;;;;;23.58;63.08;96570.53;4981027;28;20828;-68
2023/05/23 06:17:28;;;;;;;23.90;11.90;;;;;;;25.23;58.60;96563.88;4964362;28;20054;-66
2023/05/23 06:19:53;;;;;;;17.25;13.15;;;;;;;24.90;58.38;96566.50;4982329;28;20035;-67
2023/05/23 06:22:19;;;;;;;16.13;12.18;;;;;;;25.13;58.03;96565.91;4978779;28;20046;-66
2023/05/23 06:24:45;;;;;;;19.95;12.25;;;;;;;25.49;56.81;96566.38;4982905;28;20046;-67
2023/05/23 06:27:11;;;;;;;17.85;13.07;;;;;;;26.42;54.13;96567.63;4978338;28;20053;-65
2023/05/23 06:29:36;;;;;;;18.85;13.45;;;;;;;27.08;51.89;96568.78;4986578;28;20046;-66
2023/05/23 06:32:02;;;;;;;18.13;12.63;;;;;;;27.74;50.47;96567.75;4982464;28;20125;-70
2023/05/23 06:34:27;;;;;;;21.42;12.88;;;;;;;28.24;48.25;96581.13;4981117;28;20046;-66
2023/05/23 06:36:53;;;;;;;23.67;16.98;;;;;;;27.52;50.00;96584.22;4982951;28;20097;-66
2023/05/23 06:39:19;;;;;;;26.90;19.25;;;;;;;26.40;52.67;96575.78;4978169;28;20468;-67
2023/05/23 06:41:44;;;;;;;27.58;19.48;;;;;;;25.42;56.25;96578.69;4983224;28;20069;-67
2023/05/23 06:44:09;;;;;;;29.63;18.75;;;;;;;25.12;56.79;96580.38;4978598;28;20427;-65
2023/05/23 06:46:35;;;;;;;29.58;18.85;;;;;;;26.01;56.70;96580.47;4983520;28;20085;-65
2023/05/23 06:49:00;;;;;;;29.92;20.23;;;;;;;25.51;55.70;96577.88;4983507;28;20400;-67
2023/05/23 06:51:25;;;;;;;27.13;18.85;;;;;;;24.85;58.72;96569.94;4978329;28;20050;-65
2023/05/23 06:53:51;;;;;;;27.67;20.42;;;;;;;24.28;61.28;96575.88;4982330;28;20137;-68
2023/05/23 06:56:16;;;;;;;31.88;21.20;;;;;;;24.58;60.12;96577.06;4978715;28;20113;-68
2023/05/23 06:58:41;;;;;;;31.02;19.30;;;;;;;24.75;59.40;96571.97;4982833;28;20049;-66
2023/05/23 07:01:07;;;;;;;31.90;21.42;;;;;;;24.74;59.02;96576.78;4978535;28;20046;-68
2023/05/23 07:03:32;;;;;;;33.30;20.60;;;;;;;24.68;60.94;96581.44;4982443;28;20521;-67
2023/05/23 07:05:58;;;;;;;30.83;21.60;;;;;;;25.31;57.76;96576.34;4980695;28;20108;-67
2023/05/23 07:08:23;;;;;;;29.50;20.35;;;;;;;24.90;60.09;96575.72;4977208;28;20508;-69
2023/05/23 07:10:48;;;;;;;32.88;21.58;;;;;;;25.23;58.34;96580.69;4983523;28;20062;-68
2023/05/23 07:13:14;;;;;;;35.50;23.33;;;;;;;25.41;58.02;96579.94;4977829;28;20038;-67
2023/05/23 07:15:39;;;;;;;37.20;21.80;;;;;;;25.38;58.44;96586.47;4982397;28;20546;-68
2023/05/23 07:18:05;;;;;;;36.20;21.70;;;;;;;24.68;59.79;96589.06;4978125;28;20047;-67
2023/05/23 07:20:32;;;;;;;36.17;24.48;;;;;;;23.77;63.09;96590.97;4982563;28;20194;-67
2023/05/23 07:22:59;;;;;;;40.08;23.77;;;;;;;23.35;66.29;96594.13;4982396;28;20066;-67
2023/05/23 07:25:24;;;;;;;38.70;23.85;;;;;;;23.23;68.29;96590.94;4977695;28;20483;-67
2023/05/23 07:27:53;;;;;;;43.83;25.77;;;;;;;23.09;68.83;96597.81;4982282;28;20046;-65
2023/05/23 07:30:20;;;;;;;41.55;26.70;;;;;;;22.57;69.42;96590.78;4978534;28;20080;-67
2023/05/23 07:32:46;;;;;;;41.45;24.95;;;;;;;22.18;72.55;96592.00;4982118;28;20046;-67
2023/05/23 07:35:12;;;;;;;38.83;25.63;;;;;;;21.85;75.23;96584.63;4979146;28;20065;-67
2023/05/23 07:37:38;;;;;;;42.95;25.90;;;;;;;21.69;76.52;96593.09;4981205;28;20096;-67
2023/05/23 07:40:04;;;;;;;43.50;26.27;;;;;;;21.36;78.21;96582.06;4979522;28;20057;-69
2023/05/23 07:42:30;;;;;;;41.40;26.85;;;;;;;21.17;79.66;96581.75;4981461;28;20046;-67
2023/05/23 07:44:55;;;;;;;61.03;37.85;;;;;;;21.21;82.61;96584.44;4982774;28;20372;-68
2023/05/23 07:47:20;;;;;;;39.78;26.08;;;;;;;21.18;83.00;96579.78;4975182;28;20390;-68
2023/05/23 07:49:46;;;;;;;43.90;26.13;;;;;;;21.17;83.97;96576.19;4982030;28;20049;-67
2023/05/23 07:52:11;;;;;;;40.08;25.05;;;;;;;21.14;85.20;96579.06;4976844;28;20042;-67
2023/05/23 07:54:37;;;;;;;39.90;25.23;;;;;;;21.10;85.40;96583.97;4982784;28;20054;-68
2023/05/23 07:57:03;;;;;;;40.58;25.27;;;;;;;21.08;86.36;96598.31;4981035;28;20093;-71
2023/05/23 07:59:29;;;;;;;44.33;26.63;;;;;;;21.24;85.59;96591.94;4980739;28;20054;-67
2023/05/23 08:01:55;;;;;;;27.80;19.98;;;;;;;20.94;88.27;96593.13;4986586;28;20042;-67
2023/05/23 08:04:20;;;;;;;33.15;20.90;;;;;;;20.36;91.84;96585.44;4979624;28;20069;-65
2023/05/23 08:06:48;;;;;;;34.83;22.15;;;;;;;20.22;93.80;96586.53;4981507;28;20403;-66
2023/05/23 08:09:14;;;;;;;35.03;22.38;;;;;;;19.89;98.67;96585.72;4977956;28;20045;-66
2023/05/23 08:11:39;;;;;;;39.80;23.80;;;;;;;19.83;98.21;96588.25;4981195;28;20038;-68
2023/05/23 08:14:05;;;;;;;38.08;23.38;;;;;;;19.78;98.90;96589.53;4976786;28;20468;-68
2023/05/23 08:16:30;;;;;;;36.67;24.02;;;;;;;19.73;99.62;96597.56;4982885;28;20117;-66
2023/05/23 08:18:55;;;;;;;39.40;25.40;;;;;;;19.61;99.87;96594.22;4982148;28;20038;-67
2023/05/23 08:21:22;;;;;;;40.67;27.08;;;;;;;19.53;99.87;96594.81;4976258;28;22115;-67
2023/05/23 08:23:48;;;;;;;50.75;31.15;;;;;;;19.60;100.00;96592.66;4982206;28;20122;-67
2023/05/23 08:26:14;;;;;;;42.67;26.75;;;;;;;19.71;99.82;96595.19;4978317;28;20179;-66
2023/05/23 08:28:39;;;;;;;42.90;28.15;;;;;;;19.59;98.92;96595.84;4980601;28;20042;-67
2023/05/23 08:31:06;;;;;;;41.95;27.33;;;;;;;19.67;99.53;96600.06;4974327;28;20601;-69
2023/05/23 08:33:31;;;;;;;41.35;25.98;;;;;;;19.87;97.88;96600.06;4981423;28;20082;-65
2023/05/23 08:35:57;;;;;;;43.10;27.60;;;;;;;19.85;97.42;96605.25;4981312;28;20141;-66
2023/05/23 08:38:22;;;;;;;43.05;26.40;;;;;;;19.93;97.52;96603.09;4976116;28;20518;-68
2023/05/23 08:40:50;;;;;;;42.00;26.55;;;;;;;19.95;96.35;96607.03;4982522;28;20074;-68
2023/05/23 08:43:15;;;;;;;42.45;25.85;;;;;;;19.96;96.46;96603.03;4976699;28;20049;-66
2023/05/23 08:45:41;;;;;;;44.00;26.50;;;;;;;20.03;95.91;96604.88;4981298;28;20043;-67
2023/05/23 08:48:08;;;;;;;46.78;27.83;;;;;;;20.11;96.09;96603.47;4976710;28;20105;-67
2023/05/23 08:50:36;;;;;;;44.28;26.15;;;;;;;20.21;95.55;96610.03;4980827;28;20080;-67
2023/05/23 08:53:03;;;;;;;41.58;25.45;;;;;;;20.41;93.41;96607.94;4981407;28;20053;-68
2023/05/23 08:55:29;;;;;;;44.83;25.42;;;;;;;20.60;91.82;96611.84;4999290;28;20376;-69
2023/05/23 08:57:59;;;;;;;44.20;27.48;;;;;;;20.84;89.84;96613.69;5001025;28;20053;-68
2023/05/23 09:00:25;;;;;;;46.15;26.50;;;;;;;21.09;87.00;96613.81;4996170;28;20593;-69
2023/05/23 09:02:50;;;;;;;41.00;26.23;;;;;;;21.18;86.15;96622.31;4999677;28;20096;-67
2023/05/23 09:05:16;;;;;;;38.08;24.35;;;;;;;21.41;85.12;96619.72;4996480;28;20545;-67
2023/05/23 09:07:42;;;;;;;44.28;26.58;;;;;;;21.60;82.13;96615.25;5000176;28;20409;-68
2023/05/23 09:10:09;;;;;;;47.63;26.92;;;;;;;21.52;82.97;96618.25;4995530;28;20454;-66
2023/05/23 09:12:36;;;;;;;42.63;27.10;;;;;;;21.52;81.76;96620.25;5001010;28;20057;-67
2023/05/23 09:15:04;;;;;;;43.30;26.00;;;;;;;;;;5000262;28;20479;-70
2023/05/23 09:17:32;;;;;;;41.30;25.23;;;;;;;21.66;81.57;96614.28;5001994;28;20144;-68
2023/05/23 09:19:58;;;;;;;38.85;24.80;;;;;;;21.71;81.85;96616.50;5005173;28;20507;-68
2023/05/23 09:22:25;;;;;;;43.20;26.15;;;;;;;21.75;83.30;96614.41;4998891;28;20236;-67
2023/05/23 09:24:52;;;;;;;43.92;27.23;;;;;;;21.71;81.39;96615.72;5020417;28;20064;-67
2023/05/23 09:27:17;;;;;;;44.92;26.83;;;;;;;21.72;81.92;96615.28;5000298;28;20134;-66
2023/05/23 09:29:43;;;;;;;42.67;25.88;;;;;;;21.76;80.61;96610.38;5004835;28;20482;-66
2023/05/23 09:32:19;;;;;;;47.38;27.95;;;;;;;21.78;81.47;96607.16;4998180;28;20546;-66
2023/05/23 09:35:05;;;;;;;39.08;24.42;;;;;;;22.18;79.83;96605.94;5004826;28;20073;-66
2023/05/23 09:37:31;;;;;;;38.50;25.33;;;;;;;22.47;77.30;96605.84;5004308;28;20122;-66
2023/05/23 09:40:05;;;;;;;52.63;26.20;;;;;;;22.95;74.63;96609.44;5004364;28;20054;-67
2023/05/23 09:42:33;;;;;;;48.00;25.00;;;;;;;23.55;70.42;96607.78;5018308;28;20033;-66
2023/05/23 09:44:59;;;;;;;41.67;25.20;;;;;;;24.05;68.09;96609.47;4988653;28;20038;-67
2023/05/23 09:47:25;;;;;;;38.10;24.88;;;;;;;23.88;67.87;96613.75;4979968;28;20077;-66
2023/05/23 09:49:51;;;;;;;36.97;25.00;;;;;;;23.92;68.42;96611.59;4985194;28;20559;-66
2023/05/23 09:52:18;;;;;;;40.85;25.52;;;;;;;23.71;67.63;96612.38;4980511;28;20054;-67
2023/05/23 09:54:45;;;;;;;38.40;23.90;;;;;;;23.74;67.92;96611.47;4985346;28;20038;-66
2023/05/23 09:57:12;;;;;;;38.42;25.55;;;;;;;23.73;67.54;96613.47;4979908;28;20543;-68
2023/05/23 09:59:44;;;;;;;38.35;24.88;;;;;;;23.74;67.07;96617.06;4985613;28;20378;-66
2023/05/23 10:02:11;;;;;;;41.00;26.27;;;;;;;23.57;67.49;96628.47;4981742;28;20042;-66
2023/05/23 10:04:39;;;;;;;41.38;27.17;;;;;;;23.36;67.88;96621.63;4983944;28;20039;-68
2023/05/23 10:07:13;;;;;;;42.30;26.23;;;;;;;22.95;69.45;96615.03;4980250;28;20646;-66
2023/05/23 10:09:41;;;;;;;41.78;27.35;;;;;;;22.71;71.00;96606.28;4983675;28;20077;-66
2023/05/23 10:12:12;;;;;;;40.50;25.98;;;;;;;22.74;70.20;96604.59;4979100;28;20065;-67
2023/05/23 10:14:44;;;;;;;40.45;26.33;;;;;;;22.93;69.53;96602.75;4984611;28;20167;-70
2023/05/23 10:17:17;;;;;;;37.97;25.20;;;;;;;22.96;70.94;96597.06;4979514;28;20062;-68
2023/05/23 10:20:14;;;;;;;40.30;25.63;;;;;;;22.74;72.79;96594.19;4984478;28;20050;-67
2023/05/23 10:22:42;;;;;;;38.33;24.60;;;;;;;22.72;72.85;96591.06;5002686;28;20044;-67
2023/05/23 10:25:09;;;;;;;35.67;24.58;;;;;;;23.05;70.85;96583.19;4997220;28;20137;-70
2023/05/23 10:27:38;;;;;;;40.53;24.95;;;;;;;23.04;70.29;96583.59;5002987;28;20100;-68
2023/05/23 10:30:06;;;;;;;37.45;26.10;;;;;;;23.35;69.61;96588.53;4998878;28;20050;-71
2023/05/23 10:32:32;;;;;;;38.58;26.13;;;;;;;23.69;67.19;96584.09;5003399;28;20495;-66
2023/05/23 10:35:05;;;;;;;39.92;26.58;;;;;;;23.38;67.30;96584.84;5002824;28;20046;-68
2023/05/23 10:37:39;;;;;;;42.05;26.58;;;;;;;23.39;69.22;96598.34;4990128;28;20069;-67
2023/05/23 10:40:09;;;;;;;43.30;25.75;;;;;;;23.59;66.93;96581.25;4979747;28;20117;-69
2023/05/23 10:42:48;;;;;;;39.03;26.10;;;;;;;23.24;67.82;96594.50;4983502;28;20069;-66
2023/05/23 10:45:23;;;;;;;39.08;25.63;;;;;;;23.78;67.57;96584.16;5007477;28;20043;-67
2023/05/23 10:47:51;;;;;;;39.63;25.45;;;;;;;24.33;65.22;96576.03;4984139;28;20042;-67
2023/05/23 10:50:32;;;;;;;32.05;22.42;;;;;;;24.96;60.97;96582.25;4978712;28;20034;-68
2023/05/23 10:53:03;;;;;;;36.22;24.27;;;;;;;25.05;62.15;96577.88;4983039;28;20046;-67
2023/05/23 10:55:33;;;;;;;37.17;25.77;;;;;;;25.18;58.95;96584.13;5000395;28;20064;-67
2023/05/23 10:58:20;;;;;;;38.53;24.52;;;;;;;24.88;59.98;96585.81;5002631;28;20042;-69
2023/05/23 11:01:05;;;;;;;39.80;24.08;;;;;;;22.83;69.70;96580.34;5003023;28;20447;-68
2023/05/23 11:03:48;;;;;;;36.88;22.33;;;;;;;24.46;64.50;96586.34;4989298;28;20056;-65
2023/05/23 11:06:40;;;;;;;35.55;21.92;;;;;;;25.48;59.79;96582.44;4978495;28;20113;-65
2023/05/23 11:09:09;;;;;;;35.65;23.25;;;;;;;25.32;58.93;96577.16;4979528;28;20199;-70
2023/05/23 11:11:53;;;;;;;34.67;21.13;;;;;;;25.66;57.50;96578.00;4985324;28;20060;-67
2023/05/23 11:14:30;;;;;;;34.70;21.58;;;;;;;25.63;56.49;96579.75;4996516;28;20105;-66
2023/05/23 11:16:55;;;;;;;32.10;20.80;;;;;;;25.42;58.28;96577.91;5002031;28;20137;-67